sensor_id;sensor_type;location;lat;lon;timestamp;temperature;humidity
40756;DHT22;26461;45.630;9.418;2024-03-22T00:01:23;14.50;79.30
40756;DHT22;26461;45.630;9.418;2024-03-22T00:04:27;14.50;79.30
40756;DHT22;26461;45.630;9.418;2024-03-22T00:07:31;14.50;79.20
40756;DHT22;26461;45.630;9.418;2024-03-22T00:10:35;14.50;79.30
40756;DHT22;26461;45.630;9.418;2024-03-22T00:13:39;14.40;79.60
40756;DHT22;26461;45.630;9.418;2024-03-22T00:16:44;14.40;79.70
40756;DHT22;26461;45.630;9.418;2024-03-22T00:19:49;14.40;80.00
40756;DHT22;26461;45.630;9.418;2024-03-22T00:22:53;14.30;80.20
40756;DHT22;26461;45.630;9.418;2024-03-22T00:25:57;14.40;80.20
40756;DHT22;26461;45.630;9.418;2024-03-22T00:29:01;14.30;80.10
40756;DHT22;26461;45.630;9.418;2024-03-22T00:32:06;14.40;80.10
40756;DHT22;26461;45.630;9.418;2024-03-22T00:35:11;14.30;79.90
40756;DHT22;26461;45.630;9.418;2024-03-22T00:38:15;14.20;79.90
40756;DHT22;26461;45.630;9.418;2024-03-22T00:41:19;14.30;80.20
40756;DHT22;26461;45.630;9.418;2024-03-22T00:44:23;14.30;80.40
40756;DHT22;26461;45.630;9.418;2024-03-22T00:47:28;14.30;80.50
40756;DHT22;26461;45.630;9.418;2024-03-22T00:50:32;14.30;80.50
40756;DHT22;26461;45.630;9.418;2024-03-22T00:53:36;14.30;80.50
40756;DHT22;26461;45.630;9.418;2024-03-22T00:56:40;14.20;80.40
40756;DHT22;26461;45.630;9.418;2024-03-22T00:59:44;14.20;80.40
40756;DHT22;26461;45.630;9.418;2024-03-22T01:02:50;14.20;80.40
40756;DHT22;26461;45.630;9.418;2024-03-22T01:05:54;14.20;80.30
40756;DHT22;26461;45.630;9.418;2024-03-22T01:08:58;14.10;80.20
40756;DHT22;26461;45.630;9.418;2024-03-22T01:12:02;14.10;80.60
40756;DHT22;26461;45.630;9.418;2024-03-22T01:15:07;14.10;80.90
40756;DHT22;26461;45.630;9.418;2024-03-22T01:18:12;14.00;81.00
40756;DHT22;26461;45.630;9.418;2024-03-22T01:21:17;14.00;81.20
40756;DHT22;26461;45.630;9.418;2024-03-22T01:24:21;14.00;81.40
40756;DHT22;26461;45.630;9.418;2024-03-22T01:27:25;14.00;81.60
40756;DHT22;26461;45.630;9.418;2024-03-22T01:30:29;14.00;82.40
40756;DHT22;26461;45.630;9.418;2024-03-22T01:33:34;14.00;81.70
40756;DHT22;26461;45.630;9.418;2024-03-22T01:36:38;14.00;82.10
40756;DHT22;26461;45.630;9.418;2024-03-22T01:39:42;13.90;82.60
40756;DHT22;26461;45.630;9.418;2024-03-22T01:42:46;13.90;83.10
40756;DHT22;26461;45.630;9.418;2024-03-22T01:45:51;13.90;83.40
40756;DHT22;26461;45.630;9.418;2024-03-22T01:48:56;13.90;83.70
40756;DHT22;26461;45.630;9.418;2024-03-22T01:52:00;13.90;83.60
40756;DHT22;26461;45.630;9.418;2024-03-22T01:55:04;13.80;83.50
40756;DHT22;26461;45.630;9.418;2024-03-22T01:58:11;13.80;83.40
40756;DHT22;26461;45.630;9.418;2024-03-22T02:01:16;13.80;83.40
40756;DHT22;26461;45.630;9.418;2024-03-22T02:04:21;13.80;83.20
40756;DHT22;26461;45.630;9.418;2024-03-22T02:07:30;13.80;83.20
40756;DHT22;26461;45.630;9.418;2024-03-22T02:10:34;13.70;83.20
40756;DHT22;26461;45.630;9.418;2024-03-22T02:13:39;13.70;83.20
40756;DHT22;26461;45.630;9.418;2024-03-22T02:16:43;13.60;83.10
40756;DHT22;26461;45.630;9.418;2024-03-22T02:19:49;13.60;83.20
40756;DHT22;26461;45.630;9.418;2024-03-22T02:22:56;13.60;83.30
40756;DHT22;26461;45.630;9.418;2024-03-22T02:26:01;13.60;83.30
40756;DHT22;26461;45.630;9.418;2024-03-22T02:29:05;13.60;83.10
40756;DHT22;26461;45.630;9.418;2024-03-22T02:32:10;13.60;83.10
40756;DHT22;26461;45.630;9.418;2024-03-22T02:35:15;13.60;83.10
40756;DHT22;26461;45.630;9.418;2024-03-22T02:38:19;13.60;83.00
40756;DHT22;26461;45.630;9.418;2024-03-22T02:41:23;13.60;82.90
40756;DHT22;26461;45.630;9.418;2024-03-22T02:44:27;13.50;82.80
40756;DHT22;26461;45.630;9.418;2024-03-22T02:47:31;13.50;82.60
40756;DHT22;26461;45.630;9.418;2024-03-22T02:50:36;13.50;82.40
40756;DHT22;26461;45.630;9.418;2024-03-22T02:53:41;13.50;82.10
40756;DHT22;26461;45.630;9.418;2024-03-22T02:56:45;13.50;81.90
40756;DHT22;26461;45.630;9.418;2024-03-22T02:59:49;13.50;81.70
40756;DHT22;26461;45.630;9.418;2024-03-22T03:02:53;13.50;81.60
40756;DHT22;26461;45.630;9.418;2024-03-22T03:05:57;13.50;81.30
40756;DHT22;26461;45.630;9.418;2024-03-22T03:09:01;13.50;80.80
40756;DHT22;26461;45.630;9.418;2024-03-22T03:12:06;13.50;80.30
40756;DHT22;26461;45.630;9.418;2024-03-22T03:15:10;13.50;80.00
40756;DHT22;26461;45.630;9.418;2024-03-22T03:18:15;13.50;79.60
40756;DHT22;26461;45.630;9.418;2024-03-22T03:21:19;13.50;79.50
40756;DHT22;26461;45.630;9.418;2024-03-22T03:24:23;13.50;79.30
40756;DHT22;26461;45.630;9.418;2024-03-22T03:27:27;13.50;79.30
40756;DHT22;26461;45.630;9.418;2024-03-22T03:30:31;13.40;79.30
40756;DHT22;26461;45.630;9.418;2024-03-22T03:33:36;13.40;79.20
40756;DHT22;26461;45.630;9.418;2024-03-22T03:36:40;13.40;79.30
40756;DHT22;26461;45.630;9.418;2024-03-22T03:39:44;13.40;79.40
40756;DHT22;26461;45.630;9.418;2024-03-22T03:42:48;13.40;79.60
40756;DHT22;26461;45.630;9.418;2024-03-22T03:45:53;13.40;79.90
40756;DHT22;26461;45.630;9.418;2024-03-22T03:48:58;13.30;80.10
40756;DHT22;26461;45.630;9.418;2024-03-22T03:52:02;13.40;80.40
40756;DHT22;26461;45.630;9.418;2024-03-22T03:55:07;13.30;80.20
40756;DHT22;26461;45.630;9.418;2024-03-22T03:58:11;13.30;80.40
40756;DHT22;26461;45.630;9.418;2024-03-22T04:01:15;13.20;80.50
40756;DHT22;26461;45.630;9.418;2024-03-22T04:04:22;13.10;80.70
40756;DHT22;26461;45.630;9.418;2024-03-22T04:07:26;13.10;81.10
40756;DHT22;26461;45.630;9.418;2024-03-22T04:10:31;13.10;81.30
40756;DHT22;26461;45.630;9.418;2024-03-22T04:13:35;13.10;81.40
40756;DHT22;26461;45.630;9.418;2024-03-22T04:16:39;13.00;81.50
40756;DHT22;26461;45.630;9.418;2024-03-22T04:19:43;13.00;81.70
40756;DHT22;26461;45.630;9.418;2024-03-22T04:22:47;13.10;81.90
40756;DHT22;26461;45.630;9.418;2024-03-22T04:26:00;13.10;82.20
40756;DHT22;26461;45.630;9.418;2024-03-22T04:29:05;13.10;82.30
40756;DHT22;26461;45.630;9.418;2024-03-22T04:32:09;13.10;82.20
40756;DHT22;26461;45.630;9.418;2024-03-22T04:35:13;13.10;82.10
40756;DHT22;26461;45.630;9.418;2024-03-22T04:38:17;13.00;81.50
40756;DHT22;26461;45.630;9.418;2024-03-22T04:41:22;13.00;81.40
40756;DHT22;26461;45.630;9.418;2024-03-22T04:44:26;12.90;81.20
40756;DHT22;26461;45.630;9.418;2024-03-22T04:47:31;12.90;81.70
40756;DHT22;26461;45.630;9.418;2024-03-22T04:50:35;12.80;82.00
40756;DHT22;26461;45.630;9.418;2024-03-22T04:53:40;12.80;82.30
40756;DHT22;26461;45.630;9.418;2024-03-22T04:56:45;12.80;82.10
40756;DHT22;26461;45.630;9.418;2024-03-22T04:59:49;12.80;82.00
40756;DHT22;26461;45.630;9.418;2024-03-22T05:02:53;12.80;82.20
40756;DHT22;26461;45.630;9.418;2024-03-22T05:05:57;12.80;82.70
40756;DHT22;26461;45.630;9.418;2024-03-22T05:09:02;12.80;82.80
40756;DHT22;26461;45.630;9.418;2024-03-22T05:12:07;12.80;82.80
40756;DHT22;26461;45.630;9.418;2024-03-22T05:15:11;12.80;82.80
40756;DHT22;26461;45.630;9.418;2024-03-22T05:18:16;12.80;83.00
40756;DHT22;26461;45.630;9.418;2024-03-22T05:21:20;12.80;83.50
40756;DHT22;26461;45.630;9.418;2024-03-22T05:24:24;12.70;83.60
40756;DHT22;26461;45.630;9.418;2024-03-22T05:27:28;12.70;83.60
40756;DHT22;26461;45.630;9.418;2024-03-22T05:30:33;12.70;83.60
40756;DHT22;26461;45.630;9.418;2024-03-22T05:33:37;12.70;83.50
40756;DHT22;26461;45.630;9.418;2024-03-22T05:36:42;12.70;83.40
40756;DHT22;26461;45.630;9.418;2024-03-22T05:39:46;12.70;83.20
40756;DHT22;26461;45.630;9.418;2024-03-22T05:42:50;12.70;83.40
40756;DHT22;26461;45.630;9.418;2024-03-22T05:45:55;12.70;83.40
40756;DHT22;26461;45.630;9.418;2024-03-22T05:48:59;12.70;83.60
40756;DHT22;26461;45.630;9.418;2024-03-22T05:52:03;12.60;84.00
40756;DHT22;26461;45.630;9.418;2024-03-22T05:55:08;12.60;84.20
40756;DHT22;26461;45.630;9.418;2024-03-22T05:58:13;12.60;84.30
40756;DHT22;26461;45.630;9.418;2024-03-22T06:01:17;12.70;84.40
40756;DHT22;26461;45.630;9.418;2024-03-22T06:04:21;12.70;84.60
40756;DHT22;26461;45.630;9.418;2024-03-22T06:07:25;12.70;84.60
40756;DHT22;26461;45.630;9.418;2024-03-22T06:10:29;12.70;84.90
40756;DHT22;26461;45.630;9.418;2024-03-22T06:13:34;12.70;84.80
40756;DHT22;26461;45.630;9.418;2024-03-22T06:16:40;12.70;84.80
40756;DHT22;26461;45.630;9.418;2024-03-22T06:19:44;12.70;84.70
40756;DHT22;26461;45.630;9.418;2024-03-22T06:22:51;12.80;84.60
40756;DHT22;26461;45.630;9.418;2024-03-22T06:25:56;12.80;84.60
40756;DHT22;26461;45.630;9.418;2024-03-22T06:29:00;12.80;84.80
40756;DHT22;26461;45.630;9.418;2024-03-22T06:32:04;12.80;85.10
40756;DHT22;26461;45.630;9.418;2024-03-22T06:35:08;12.80;85.10
40756;DHT22;26461;45.630;9.418;2024-03-22T06:38:13;12.80;85.20
40756;DHT22;26461;45.630;9.418;2024-03-22T06:41:17;12.90;85.80
40756;DHT22;26461;45.630;9.418;2024-03-22T06:44:22;12.90;86.00
40756;DHT22;26461;45.630;9.418;2024-03-22T06:47:26;13.00;85.40
40756;DHT22;26461;45.630;9.418;2024-03-22T06:50:31;13.00;86.00
40756;DHT22;26461;45.630;9.418;2024-03-22T06:53:35;13.00;85.10
40756;DHT22;26461;45.630;9.418;2024-03-22T06:56:39;13.00;85.10
40756;DHT22;26461;45.630;9.418;2024-03-22T06:59:43;13.10;85.30
40756;DHT22;26461;45.630;9.418;2024-03-22T07:02:47;13.10;85.20
40756;DHT22;26461;45.630;9.418;2024-03-22T07:05:52;13.10;85.20
40756;DHT22;26461;45.630;9.418;2024-03-22T07:08:56;13.20;85.30
40756;DHT22;26461;45.630;9.418;2024-03-22T07:12:01;13.20;85.50
40756;DHT22;26461;45.630;9.418;2024-03-22T07:15:05;13.20;85.70
40756;DHT22;26461;45.630;9.418;2024-03-22T07:18:10;13.30;86.00
40756;DHT22;26461;45.630;9.418;2024-03-22T07:21:14;13.40;86.10
40756;DHT22;26461;45.630;9.418;2024-03-22T07:24:18;13.40;86.00
40756;DHT22;26461;45.630;9.418;2024-03-22T07:27:23;13.50;86.00
40756;DHT22;26461;45.630;9.418;2024-03-22T07:30:27;13.50;85.90
40756;DHT22;26461;45.630;9.418;2024-03-22T07:33:32;13.60;85.70
40756;DHT22;26461;45.630;9.418;2024-03-22T07:36:39;13.60;85.60
40756;DHT22;26461;45.630;9.418;2024-03-22T07:39:44;13.70;85.50
40756;DHT22;26461;45.630;9.418;2024-03-22T07:42:48;13.70;85.30
40756;DHT22;26461;45.630;9.418;2024-03-22T07:45:52;13.80;85.20
40756;DHT22;26461;45.630;9.418;2024-03-22T07:48:56;13.90;85.00
40756;DHT22;26461;45.630;9.418;2024-03-22T07:52:00;13.90;84.70
40756;DHT22;26461;45.630;9.418;2024-03-22T07:55:04;14.00;84.40
40756;DHT22;26461;45.630;9.418;2024-03-22T07:58:09;14.00;84.10
40756;DHT22;26461;45.630;9.418;2024-03-22T08:01:13;14.00;83.70
40756;DHT22;26461;45.630;9.418;2024-03-22T08:04:17;14.10;83.50
40756;DHT22;26461;45.630;9.418;2024-03-22T08:07:22;14.20;83.40
40756;DHT22;26461;45.630;9.418;2024-03-22T08:10:26;14.20;83.10
40756;DHT22;26461;45.630;9.418;2024-03-22T08:13:31;14.20;83.00
40756;DHT22;26461;45.630;9.418;2024-03-22T08:16:35;14.30;83.10
40756;DHT22;26461;45.630;9.418;2024-03-22T08:19:40;14.30;83.40
40756;DHT22;26461;45.630;9.418;2024-03-22T08:22:44;14.40;83.40
40756;DHT22;26461;45.630;9.418;2024-03-22T08:25:49;14.50;83.10
40756;DHT22;26461;45.630;9.418;2024-03-22T08:28:53;14.50;82.70
40756;DHT22;26461;45.630;9.418;2024-03-22T08:31:57;14.60;82.50
40756;DHT22;26461;45.630;9.418;2024-03-22T08:35:02;14.60;82.30
40756;DHT22;26461;45.630;9.418;2024-03-22T08:38:08;14.60;82.20
40756;DHT22;26461;45.630;9.418;2024-03-22T08:41:14;14.70;81.90
40756;DHT22;26461;45.630;9.418;2024-03-22T08:44:19;14.70;81.70
40756;DHT22;26461;45.630;9.418;2024-03-22T08:47:23;14.80;81.60
40756;DHT22;26461;45.630;9.418;2024-03-22T08:50:28;14.80;81.50
40756;DHT22;26461;45.630;9.418;2024-03-22T08:53:32;14.80;81.20
40756;DHT22;26461;45.630;9.418;2024-03-22T08:56:36;14.90;81.20
40756;DHT22;26461;45.630;9.418;2024-03-22T08:59:41;15.00;81.20
40756;DHT22;26461;45.630;9.418;2024-03-22T09:02:46;15.00;81.00
40756;DHT22;26461;45.630;9.418;2024-03-22T09:05:55;15.00;80.60
40756;DHT22;26461;45.630;9.418;2024-03-22T09:08:59;15.10;80.20
40756;DHT22;26461;45.630;9.418;2024-03-22T09:12:03;15.10;80.00
40756;DHT22;26461;45.630;9.418;2024-03-22T09:15:08;15.20;79.80
40756;DHT22;26461;45.630;9.418;2024-03-22T09:18:12;15.20;79.60
40756;DHT22;26461;45.630;9.418;2024-03-22T09:21:16;15.20;79.40
40756;DHT22;26461;45.630;9.418;2024-03-22T09:24:21;15.30;79.20
40756;DHT22;26461;45.630;9.418;2024-03-22T09:27:25;15.30;79.10
40756;DHT22;26461;45.630;9.418;2024-03-22T09:30:30;15.30;79.10
40756;DHT22;26461;45.630;9.418;2024-03-22T09:33:34;15.40;78.90
40756;DHT22;26461;45.630;9.418;2024-03-22T09:36:38;15.40;78.70
40756;DHT22;26461;45.630;9.418;2024-03-22T09:39:44;15.40;78.70
40756;DHT22;26461;45.630;9.418;2024-03-22T09:42:49;15.40;78.40
40756;DHT22;26461;45.630;9.418;2024-03-22T09:45:55;15.50;78.20
40756;DHT22;26461;45.630;9.418;2024-03-22T09:49:01;15.50;77.60
40756;DHT22;26461;45.630;9.418;2024-03-22T09:52:06;15.50;77.50
40756;DHT22;26461;45.630;9.418;2024-03-22T09:55:10;15.60;77.10
40756;DHT22;26461;45.630;9.418;2024-03-22T09:58:15;15.60;76.30
40756;DHT22;26461;45.630;9.418;2024-03-22T10:01:21;15.70;76.00
40756;DHT22;26461;45.630;9.418;2024-03-22T10:04:26;15.70;75.50
40756;DHT22;26461;45.630;9.418;2024-03-22T10:07:31;15.80;75.00
40756;DHT22;26461;45.630;9.418;2024-03-22T10:10:35;15.80;74.20
40756;DHT22;26461;45.630;9.418;2024-03-22T10:13:39;15.80;73.90
40756;DHT22;26461;45.630;9.418;2024-03-22T10:16:44;15.90;73.70
40756;DHT22;26461;45.630;9.418;2024-03-22T10:19:49;16.00;72.90
40756;DHT22;26461;45.630;9.418;2024-03-22T10:22:57;16.00;71.50
40756;DHT22;26461;45.630;9.418;2024-03-22T10:26:04;16.00;70.90
40756;DHT22;26461;45.630;9.418;2024-03-22T10:29:11;16.10;70.70
40756;DHT22;26461;45.630;9.418;2024-03-22T10:32:18;16.10;70.40
40756;DHT22;26461;45.630;9.418;2024-03-22T10:35:23;16.20;70.30
40756;DHT22;26461;45.630;9.418;2024-03-22T10:38:29;16.20;70.00
40756;DHT22;26461;45.630;9.418;2024-03-22T10:41:33;16.30;69.60
40756;DHT22;26461;45.630;9.418;2024-03-22T10:44:38;16.20;68.70
40756;DHT22;26461;45.630;9.418;2024-03-22T10:47:44;16.30;68.60
40756;DHT22;26461;45.630;9.418;2024-03-22T10:50:51;16.30;68.50
40756;DHT22;26461;45.630;9.418;2024-03-22T10:53:58;16.40;67.50
40756;DHT22;26461;45.630;9.418;2024-03-22T10:57:06;16.30;66.70
40756;DHT22;26461;45.630;9.418;2024-03-22T11:00:12;16.40;66.60
40756;DHT22;26461;45.630;9.418;2024-03-22T11:03:16;16.40;66.60
40756;DHT22;26461;45.630;9.418;2024-03-22T11:06:20;16.50;66.60
40756;DHT22;26461;45.630;9.418;2024-03-22T11:09:26;16.50;65.50
40756;DHT22;26461;45.630;9.418;2024-03-22T11:12:30;16.50;65.50
40756;DHT22;26461;45.630;9.418;2024-03-22T11:15:38;16.60;65.40
40756;DHT22;26461;45.630;9.418;2024-03-22T11:18:42;16.60;65.10
40756;DHT22;26461;45.630;9.418;2024-03-22T11:21:47;16.60;64.60
40756;DHT22;26461;45.630;9.418;2024-03-22T11:24:52;16.70;63.70
40756;DHT22;26461;45.630;9.418;2024-03-22T11:27:57;16.60;63.40
40756;DHT22;26461;45.630;9.418;2024-03-22T11:31:02;16.70;63.00
40756;DHT22;26461;45.630;9.418;2024-03-22T11:34:06;16.70;63.20
40756;DHT22;26461;45.630;9.418;2024-03-22T11:37:11;16.70;62.90
40756;DHT22;26461;45.630;9.418;2024-03-22T11:40:15;16.70;63.40
40756;DHT22;26461;45.630;9.418;2024-03-22T11:43:20;16.80;63.80
40756;DHT22;26461;45.630;9.418;2024-03-22T11:46:25;16.90;63.50
40756;DHT22;26461;45.630;9.418;2024-03-22T11:49:30;16.90;62.90
40756;DHT22;26461;45.630;9.418;2024-03-22T11:52:35;17.00;62.20
40756;DHT22;26461;45.630;9.418;2024-03-22T11:55:40;17.00;61.70
40756;DHT22;26461;45.630;9.418;2024-03-22T11:58:49;17.00;62.00
40756;DHT22;26461;45.630;9.418;2024-03-22T12:01:54;17.00;61.90
40756;DHT22;26461;45.630;9.418;2024-03-22T12:05:00;17.00;62.00
40756;DHT22;26461;45.630;9.418;2024-03-22T12:08:05;17.00;62.10
40756;DHT22;26461;45.630;9.418;2024-03-22T12:11:10;17.00;62.20
40756;DHT22;26461;45.630;9.418;2024-03-22T12:14:15;17.10;63.20
40756;DHT22;26461;45.630;9.418;2024-03-22T12:17:19;17.10;62.40
40756;DHT22;26461;45.630;9.418;2024-03-22T12:20:23;17.10;61.60
40756;DHT22;26461;45.630;9.418;2024-03-22T12:23:28;17.10;60.60
40756;DHT22;26461;45.630;9.418;2024-03-22T12:26:32;17.20;60.40
40756;DHT22;26461;45.630;9.418;2024-03-22T12:29:37;17.20;60.00
40756;DHT22;26461;45.630;9.418;2024-03-22T12:32:41;17.10;60.20
40756;DHT22;26461;45.630;9.418;2024-03-22T12:35:45;17.20;60.30
40756;DHT22;26461;45.630;9.418;2024-03-22T12:38:51;17.20;59.80
40756;DHT22;26461;45.630;9.418;2024-03-22T12:41:55;17.20;60.00
40756;DHT22;26461;45.630;9.418;2024-03-22T12:44:59;17.30;60.40
40756;DHT22;26461;45.630;9.418;2024-03-22T12:48:04;17.30;60.60
40756;DHT22;26461;45.630;9.418;2024-03-22T12:51:09;17.30;59.50
40756;DHT22;26461;45.630;9.418;2024-03-22T12:54:14;17.40;60.40
40756;DHT22;26461;45.630;9.418;2024-03-22T12:57:19;17.40;60.40
40756;DHT22;26461;45.630;9.418;2024-03-22T13:00:23;17.40;60.70
40756;DHT22;26461;45.630;9.418;2024-03-22T13:03:28;17.40;60.50
40756;DHT22;26461;45.630;9.418;2024-03-22T13:06:34;17.40;60.50
40756;DHT22;26461;45.630;9.418;2024-03-22T13:09:38;17.40;59.70
40756;DHT22;26461;45.630;9.418;2024-03-22T13:12:43;17.50;59.60
40756;DHT22;26461;45.630;9.418;2024-03-22T13:15:48;17.50;59.20
40756;DHT22;26461;45.630;9.418;2024-03-22T13:18:52;17.60;58.00
40756;DHT22;26461;45.630;9.418;2024-03-22T13:21:57;17.60;58.40
40756;DHT22;26461;45.630;9.418;2024-03-22T13:25:01;17.70;58.60
40756;DHT22;26461;45.630;9.418;2024-03-22T13:28:05;17.70;58.80
40756;DHT22;26461;45.630;9.418;2024-03-22T13:31:10;17.80;58.80
40756;DHT22;26461;45.630;9.418;2024-03-22T13:34:15;17.80;58.60
40756;DHT22;26461;45.630;9.418;2024-03-22T13:37:19;17.90;59.00
40756;DHT22;26461;45.630;9.418;2024-03-22T13:40:23;17.90;59.10
40756;DHT22;26461;45.630;9.418;2024-03-22T13:43:28;17.90;58.60
40756;DHT22;26461;45.630;9.418;2024-03-22T13:46:33;18.00;58.30
40756;DHT22;26461;45.630;9.418;2024-03-22T13:49:40;18.00;57.70
40756;DHT22;26461;45.630;9.418;2024-03-22T13:52:45;18.00;56.30
40756;DHT22;26461;45.630;9.418;2024-03-22T13:55:50;18.00;56.40
40756;DHT22;26461;45.630;9.418;2024-03-22T13:58:55;18.10;56.80
40756;DHT22;26461;45.630;9.418;2024-03-22T14:02:00;18.10;56.50
40756;DHT22;26461;45.630;9.418;2024-03-22T14:05:05;18.20;56.80
40756;DHT22;26461;45.630;9.418;2024-03-22T14:08:10;18.20;56.60
40756;DHT22;26461;45.630;9.418;2024-03-22T14:11:14;18.30;56.00
40756;DHT22;26461;45.630;9.418;2024-03-22T14:14:19;18.30;55.80
40756;DHT22;26461;45.630;9.418;2024-03-22T14:17:23;18.40;55.30
40756;DHT22;26461;45.630;9.418;2024-03-22T14:20:27;18.40;55.00
40756;DHT22;26461;45.630;9.418;2024-03-22T14:23:32;18.40;54.40
40756;DHT22;26461;45.630;9.418;2024-03-22T14:26:37;18.50;54.10
40756;DHT22;26461;45.630;9.418;2024-03-22T14:29:46;18.50;53.80
40756;DHT22;26461;45.630;9.418;2024-03-22T14:32:51;18.50;53.50
40756;DHT22;26461;45.630;9.418;2024-03-22T14:35:56;18.50;53.20
40756;DHT22;26461;45.630;9.418;2024-03-22T14:39:01;18.60;52.90
40756;DHT22;26461;45.630;9.418;2024-03-22T14:42:09;18.60;53.10
40756;DHT22;26461;45.630;9.418;2024-03-22T14:45:13;18.60;53.20
40756;DHT22;26461;45.630;9.418;2024-03-22T14:48:24;18.70;53.00
40756;DHT22;26461;45.630;9.418;2024-03-22T14:51:29;18.80;52.50
40756;DHT22;26461;45.630;9.418;2024-03-22T14:54:33;18.80;52.40
40756;DHT22;26461;45.630;9.418;2024-03-22T14:57:37;18.90;52.40
40756;DHT22;26461;45.630;9.418;2024-03-22T15:00:41;18.90;52.30
40756;DHT22;26461;45.630;9.418;2024-03-22T15:03:46;18.90;52.10
40756;DHT22;26461;45.630;9.418;2024-03-22T15:06:50;18.90;51.90
40756;DHT22;26461;45.630;9.418;2024-03-22T15:09:55;19.00;52.50
40756;DHT22;26461;45.630;9.418;2024-03-22T15:13:00;19.10;51.80
40756;DHT22;26461;45.630;9.418;2024-03-22T15:16:05;19.10;52.10
40756;DHT22;26461;45.630;9.418;2024-03-22T15:19:09;19.20;51.90
40756;DHT22;26461;45.630;9.418;2024-03-22T15:22:13;19.20;51.60
40756;DHT22;26461;45.630;9.418;2024-03-22T15:25:23;19.20;51.90
40756;DHT22;26461;45.630;9.418;2024-03-22T15:28:27;19.20;52.10
40756;DHT22;26461;45.630;9.418;2024-03-22T15:31:32;19.30;52.40
40756;DHT22;26461;45.630;9.418;2024-03-22T15:34:55;19.30;52.20
40756;DHT22;26461;45.630;9.418;2024-03-22T15:38:00;19.30;51.70
40756;DHT22;26461;45.630;9.418;2024-03-22T15:41:04;19.40;51.10
40756;DHT22;26461;45.630;9.418;2024-03-22T15:44:08;19.40;50.80
40756;DHT22;26461;45.630;9.418;2024-03-22T15:47:13;19.40;51.00
40756;DHT22;26461;45.630;9.418;2024-03-22T15:50:20;19.40;51.20
40756;DHT22;26461;45.630;9.418;2024-03-22T15:53:25;19.40;51.50
40756;DHT22;26461;45.630;9.418;2024-03-22T15:56:29;19.40;51.50
40756;DHT22;26461;45.630;9.418;2024-03-22T15:59:34;19.50;51.60
40756;DHT22;26461;45.630;9.418;2024-03-22T16:02:39;19.50;51.60
40756;DHT22;26461;45.630;9.418;2024-03-22T16:05:51;19.50;51.50
40756;DHT22;26461;45.630;9.418;2024-03-22T16:08:56;19.50;51.20
40756;DHT22;26461;45.630;9.418;2024-03-22T16:12:00;19.50;51.20
40756;DHT22;26461;45.630;9.418;2024-03-22T16:15:05;19.50;51.40
40756;DHT22;26461;45.630;9.418;2024-03-22T16:18:10;19.50;51.30
40756;DHT22;26461;45.630;9.418;2024-03-22T16:21:14;19.50;51.90
40756;DHT22;26461;45.630;9.418;2024-03-22T16:24:19;19.60;51.70
40756;DHT22;26461;45.630;9.418;2024-03-22T16:27:24;19.50;51.60
40756;DHT22;26461;45.630;9.418;2024-03-22T16:30:28;19.50;51.90
40756;DHT22;26461;45.630;9.418;2024-03-22T16:33:32;19.50;51.90
40756;DHT22;26461;45.630;9.418;2024-03-22T16:36:37;19.50;52.00
40756;DHT22;26461;45.630;9.418;2024-03-22T16:39:42;19.40;52.20
40756;DHT22;26461;45.630;9.418;2024-03-22T16:42:47;19.40;52.40
40756;DHT22;26461;45.630;9.418;2024-03-22T16:45:52;19.40;52.60
40756;DHT22;26461;45.630;9.418;2024-03-22T16:48:56;19.40;52.60
40756;DHT22;26461;45.630;9.418;2024-03-22T16:52:00;19.40;52.80
40756;DHT22;26461;45.630;9.418;2024-03-22T16:55:06;19.40;53.00
40756;DHT22;26461;45.630;9.418;2024-03-22T16:58:13;19.40;53.90
40756;DHT22;26461;45.630;9.418;2024-03-22T17:01:18;19.40;53.60
40756;DHT22;26461;45.630;9.418;2024-03-22T17:04:22;19.40;53.90
40756;DHT22;26461;45.630;9.418;2024-03-22T17:07:28;19.40;54.10
40756;DHT22;26461;45.630;9.418;2024-03-22T17:10:32;19.30;54.30
40756;DHT22;26461;45.630;9.418;2024-03-22T17:13:37;19.40;54.60
40756;DHT22;26461;45.630;9.418;2024-03-22T17:16:42;19.30;54.80
40756;DHT22;26461;45.630;9.418;2024-03-22T17:19:47;19.30;55.00
40756;DHT22;26461;45.630;9.418;2024-03-22T17:22:52;19.30;55.20
40756;DHT22;26461;45.630;9.418;2024-03-22T17:26:00;19.30;55.60
40756;DHT22;26461;45.630;9.418;2024-03-22T17:29:04;19.20;55.70
40756;DHT22;26461;45.630;9.418;2024-03-22T17:32:08;19.20;55.90
40756;DHT22;26461;45.630;9.418;2024-03-22T17:35:13;19.10;56.00
40756;DHT22;26461;45.630;9.418;2024-03-22T17:38:18;19.10;56.30
40756;DHT22;26461;45.630;9.418;2024-03-22T17:41:22;19.00;56.60
40756;DHT22;26461;45.630;9.418;2024-03-22T17:44:27;19.00;58.10
40756;DHT22;26461;45.630;9.418;2024-03-22T17:47:32;19.00;59.00
40756;DHT22;26461;45.630;9.418;2024-03-22T17:50:37;19.00;59.20
40756;DHT22;26461;45.630;9.418;2024-03-22T17:53:42;18.90;59.60
40756;DHT22;26461;45.630;9.418;2024-03-22T17:56:47;18.80;60.60
40756;DHT22;26461;45.630;9.418;2024-03-22T17:59:51;18.70;60.60
40756;DHT22;26461;45.630;9.418;2024-03-22T18:02:55;18.60;60.40
40756;DHT22;26461;45.630;9.418;2024-03-22T18:06:00;18.50;60.80
40756;DHT22;26461;45.630;9.418;2024-03-22T18:09:08;18.40;60.70
40756;DHT22;26461;45.630;9.418;2024-03-22T18:12:15;18.40;60.80
40756;DHT22;26461;45.630;9.418;2024-03-22T18:15:25;18.40;61.00
40756;DHT22;26461;45.630;9.418;2024-03-22T18:18:30;18.20;61.30
40756;DHT22;26461;45.630;9.418;2024-03-22T18:21:35;18.20;61.50
40756;DHT22;26461;45.630;9.418;2024-03-22T18:24:43;18.10;61.90
40756;DHT22;26461;45.630;9.418;2024-03-22T18:27:48;18.10;62.20
40756;DHT22;26461;45.630;9.418;2024-03-22T18:30:53;18.10;62.10
40756;DHT22;26461;45.630;9.418;2024-03-22T18:33:57;18.00;62.50
40756;DHT22;26461;45.630;9.418;2024-03-22T18:37:02;18.00;62.40
40756;DHT22;26461;45.630;9.418;2024-03-22T18:40:07;18.00;62.30
40756;DHT22;26461;45.630;9.418;2024-03-22T18:43:11;18.00;62.70
40756;DHT22;26461;45.630;9.418;2024-03-22T18:46:16;17.90;63.00
40756;DHT22;26461;45.630;9.418;2024-03-22T18:49:20;17.90;63.00
40756;DHT22;26461;45.630;9.418;2024-03-22T18:52:25;17.80;62.60
40756;DHT22;26461;45.630;9.418;2024-03-22T18:55:29;17.80;62.70
40756;DHT22;26461;45.630;9.418;2024-03-22T18:58:36;17.80;63.50
40756;DHT22;26461;45.630;9.418;2024-03-22T19:01:41;17.70;63.30
40756;DHT22;26461;45.630;9.418;2024-03-22T19:04:46;17.70;63.70
40756;DHT22;26461;45.630;9.418;2024-03-22T19:07:50;17.70;63.90
40756;DHT22;26461;45.630;9.418;2024-03-22T19:10:55;17.60;64.00
40756;DHT22;26461;45.630;9.418;2024-03-22T19:13:59;17.60;64.30
40756;DHT22;26461;45.630;9.418;2024-03-22T19:17:03;17.60;64.40
40756;DHT22;26461;45.630;9.418;2024-03-22T19:20:08;17.60;64.20
40756;DHT22;26461;45.630;9.418;2024-03-22T19:23:13;17.60;63.60
40756;DHT22;26461;45.630;9.418;2024-03-22T19:26:18;17.50;64.70